Main page
METAR-TAF:

METAR-TAF

Airports :

Lubbock Preston Smith International Airport

Lubbock, Texas, United States

latitude: 33-40-03N, longitude: 101-49-17W, elevation: 3280 ft

Current weather observation

The report was made 52 minutes ago, at 10:53 UTC
Wind 6 mph from the Southeast
Temperature 66°F
Humidity 83%
Pressure 30.21 in. Hg
Visibility: 10 miles
Scattered clouds at a height of 6500 ft

METAR: KLBB 201053Z 14005KT 10SM SCT065 19/16 A3021 RMK AO2 SLP180 T01940161

Time: 06:45 (11:45 UTC)

Forecast

The report was made 23 minutes ago, at 11:22 UTC
Forecast valid from 20 at 12 UTC to 21 at 12 UTC
Wind 13 mph from the East/Southeast
Visibility: 6 miles
Scattered clouds at a height of 2500 ft
Broken clouds at a height of 5000 ft
Temporary
from 20 at 15 UTC to 20 at 19 UTC
Broken clouds at a height of 2500 ft

TAF: KLBB 201122Z 2012/2112 12011KT P6SM SCT025 BKN050 TEMPO 2015/2019 BKN025

Weather observations and forecasts of more than 4000 airports (METAR and TAF reports).

The available stations are represented by yellow and red dots on the map.

Hover mouse over dot to see the name of the station.

Then click to see weather observations and forecasts.

To change the map : click on the green buttons with a black cross to zoom in, on the green button with a dash to zoom out, or on the green arrows for adjacent maps.


METAR-TAF: